createdAt,value
2022-10-18T00:00:00.366Z,12.50
2022-10-18T00:02:11.434Z,12.51
2022-10-18T00:04:19.855Z,12.47
2022-10-18T00:06:28.919Z,12.43
2022-10-18T00:08:39.306Z,12.40
2022-10-18T00:10:47.733Z,12.36
2022-10-18T00:12:56.496Z,12.37
2022-10-18T00:15:05.426Z,12.33
2022-10-18T00:17:16.258Z,12.33
2022-10-18T00:19:27.227Z,12.26
2022-10-18T00:21:37.502Z,12.19
2022-10-18T00:23:46.464Z,12.23
2022-10-18T00:26:02.449Z,12.14
2022-10-18T00:28:11.038Z,12.07
2022-10-18T00:30:19.391Z,12.04
2022-10-18T00:32:31.278Z,12.07
2022-10-18T00:34:41.076Z,12.10
2022-10-18T00:36:49.764Z,11.95
2022-10-18T00:38:58.081Z,11.88
2022-10-18T00:41:07.480Z,11.80
2022-10-18T00:43:20.632Z,11.77
2022-10-18T00:45:29.413Z,11.77
2022-10-18T00:47:40.438Z,11.72
2022-10-18T00:49:51.933Z,11.71
2022-10-18T00:52:02.836Z,11.67
2022-10-18T00:54:11.725Z,11.68
2022-10-18T00:56:20.975Z,11.67
2022-10-18T00:58:30.579Z,11.66
2022-10-18T01:00:41.019Z,11.65
2022-10-18T01:02:52.950Z,11.68
2022-10-18T01:05:01.032Z,11.72
2022-10-18T01:07:17.563Z,11.77
2022-10-18T01:09:35.220Z,11.78
2022-10-18T01:12:03.979Z,11.77
2022-10-18T01:14:21.959Z,11.85
2022-10-18T01:16:35.751Z,11.82
2022-10-18T01:18:52.741Z,11.80
2022-10-18T01:21:15.989Z,11.86
2022-10-18T01:23:35.659Z,11.89
2022-10-18T01:25:54.187Z,11.88
2022-10-18T01:28:16.451Z,11.90
2022-10-18T01:30:39.475Z,11.96
2022-10-18T01:32:52.003Z,12.01
2022-10-18T01:35:04.570Z,11.95
2022-10-18T01:37:18.009Z,12.00
2022-10-18T01:39:31.344Z,11.95
2022-10-18T01:41:42.114Z,11.96
2022-10-18T01:43:53.960Z,11.95
2022-10-18T01:46:08.759Z,11.99
2022-10-18T01:48:18.298Z,12.04
2022-10-18T01:50:33.488Z,12.04
2022-10-18T01:52:51.474Z,12.08
2022-10-18T01:55:02.471Z,12.01
2022-10-18T01:57:19.877Z,12.05
2022-10-18T01:59:42.106Z,12.05
2022-10-18T02:02:02.362Z,12.12
2022-10-18T02:04:23.691Z,12.11
2022-10-18T02:06:37.281Z,12.20
2022-10-18T02:08:50.039Z,12.18
2022-10-18T02:11:03.758Z,12.26
2022-10-18T02:13:14.339Z,12.19
2022-10-18T02:15:26.442Z,12.21
2022-10-18T02:17:37.558Z,12.19
2022-10-18T02:19:49.347Z,12.18
2022-10-18T02:22:00.147Z,12.22
2022-10-18T02:24:09.823Z,12.20
2022-10-18T02:26:19.010Z,12.22
2022-10-18T02:28:27.383Z,12.19
2022-10-18T02:30:41.003Z,12.23
2022-10-18T02:33:00.474Z,12.21
2022-10-18T02:35:13.919Z,12.26
2022-10-18T02:37:23.661Z,12.24
2022-10-18T02:39:35.726Z,12.20
2022-10-18T02:41:44.802Z,12.22
2022-10-18T02:43:52.986Z,12.17
2022-10-18T02:46:01.560Z,12.18
2022-10-18T02:48:13.219Z,12.14
2022-10-18T02:50:21.923Z,12.16
2022-10-18T02:52:30.109Z,12.16
2022-10-18T02:54:38.490Z,12.11
2022-10-18T02:56:46.588Z,12.12
2022-10-18T02:58:54.931Z,12.18
2022-10-18T03:01:03.306Z,12.20
2022-10-18T03:03:14.018Z,12.30
2022-10-18T03:05:22.176Z,12.23
2022-10-18T03:07:30.927Z,12.32
2022-10-18T03:09:39.361Z,12.20
2022-10-18T03:11:47.648Z,12.31
2022-10-18T03:13:55.688Z,12.27
2022-10-18T03:16:04.064Z,12.20
2022-10-18T03:18:14.966Z,12.28
2022-10-18T03:20:23.682Z,12.29
2022-10-18T03:22:32.141Z,12.31
2022-10-18T03:24:40.392Z,12.18
2022-10-18T03:26:48.508Z,12.14
2022-10-18T03:28:57.529Z,12.14
2022-10-18T03:31:07.745Z,12.12
2022-10-18T03:33:18.606Z,12.21
2022-10-18T03:35:27.243Z,12.20
2022-10-18T03:37:35.929Z,12.20
2022-10-18T03:39:44.031Z,12.33
2022-10-18T03:41:52.438Z,12.23
2022-10-18T03:44:00.886Z,12.30
2022-10-18T03:46:09.160Z,12.19
2022-10-18T03:48:20.192Z,12.18
2022-10-18T03:50:28.724Z,12.22
2022-10-18T03:52:37.473Z,12.21
2022-10-18T03:54:45.934Z,12.24
2022-10-18T03:56:54.283Z,12.19
2022-10-18T03:59:04.649Z,12.20
2022-10-18T04:01:15.724Z,12.22
2022-10-18T04:03:27.449Z,12.19
2022-10-18T04:05:36.945Z,12.11
2022-10-18T04:07:45.432Z,12.11
2022-10-18T04:09:54.079Z,12.09
2022-10-18T04:12:02.627Z,12.09
2022-10-18T04:14:11.103Z,12.11
2022-10-18T04:16:19.669Z,12.05
2022-10-18T04:18:30.433Z,12.06
2022-10-18T04:20:38.628Z,12.11
2022-10-18T04:22:47.040Z,12.10
2022-10-18T04:24:57.049Z,12.21
2022-10-18T04:27:05.477Z,12.18
2022-10-18T04:29:13.869Z,12.15
2022-10-18T04:31:22.490Z,12.15
2022-10-18T04:33:33.453Z,12.06
2022-10-18T04:35:41.982Z,12.02
2022-10-18T04:37:50.374Z,11.99
2022-10-18T04:39:58.748Z,12.02
2022-10-18T04:42:07.108Z,12.01
2022-10-18T04:44:15.273Z,11.96
2022-10-18T04:46:23.802Z,11.98
2022-10-18T04:48:34.842Z,11.90
2022-10-18T04:50:43.027Z,11.86
2022-10-18T04:52:56.051Z,11.86
2022-10-18T04:55:04.555Z,11.85
2022-10-18T04:57:12.736Z,11.79
2022-10-18T04:59:21.342Z,11.82
2022-10-18T05:01:29.711Z,11.76
2022-10-18T05:03:40.642Z,11.75
2022-10-18T05:06:04.458Z,11.70
2022-10-18T05:08:12.908Z,11.70
2022-10-18T05:10:21.652Z,11.80
2022-10-18T05:12:30.649Z,11.76
2022-10-18T05:14:39.465Z,11.75
2022-10-18T05:16:48.397Z,11.86
2022-10-18T05:18:59.178Z,11.84
2022-10-18T05:21:07.664Z,11.86
2022-10-18T05:23:15.926Z,12.01
2022-10-18T05:25:24.782Z,12.21
2022-10-18T05:27:33.787Z,12.20
2022-10-18T05:29:41.919Z,12.33
2022-10-18T05:31:51.492Z,12.17
2022-10-18T05:34:02.838Z,12.21
2022-10-18T05:36:11.659Z,12.26
2022-10-18T05:38:20.062Z,12.35
2022-10-18T05:40:28.600Z,12.33
2022-10-18T05:42:37.296Z,12.30
2022-10-18T05:44:45.353Z,12.25
2022-10-18T05:46:53.500Z,12.22
2022-10-18T05:49:04.215Z,12.20
2022-10-18T05:51:12.543Z,12.19
2022-10-18T05:53:37.580Z,12.15
2022-10-18T05:55:48.742Z,12.10
2022-10-18T05:57:57.194Z,12.02
2022-10-18T06:00:05.831Z,12.03
2022-10-18T06:02:20.289Z,12.00
2022-10-18T06:04:30.998Z,12.34
2022-10-18T06:06:40.115Z,12.23
2022-10-18T06:08:52.411Z,12.24
2022-10-18T06:11:00.632Z,12.27
2022-10-18T06:13:09.074Z,12.22
2022-10-18T06:15:17.174Z,12.13
2022-10-18T06:17:26.801Z,12.04
2022-10-18T06:19:43.651Z,12.10
2022-10-18T06:21:52.821Z,12.17
2022-10-18T06:24:02.071Z,12.20
2022-10-18T06:26:13.155Z,12.33
2022-10-18T06:28:22.136Z,12.36
2022-10-18T06:30:30.480Z,12.47
2022-10-18T06:32:38.932Z,12.60
2022-10-18T06:34:49.906Z,12.71
2022-10-18T06:36:59.184Z,12.91
2022-10-18T06:39:07.903Z,13.02
2022-10-18T06:41:16.676Z,13.33
2022-10-18T06:43:25.100Z,13.67
2022-10-18T06:45:33.521Z,14.02
2022-10-18T06:47:42.034Z,14.22
2022-10-18T06:49:52.907Z,14.32
2022-10-18T06:52:00.997Z,14.39
2022-10-18T06:54:23.190Z,14.51
2022-10-18T06:56:31.541Z,14.75
2022-10-18T06:58:40.092Z,15.02
2022-10-18T07:00:48.212Z,15.22
2022-10-18T07:02:56.673Z,15.21
2022-10-18T07:05:08.387Z,15.19
2022-10-18T07:07:16.671Z,14.95
2022-10-18T07:09:24.833Z,15.03
2022-10-18T07:11:33.256Z,14.74
2022-10-18T07:13:41.888Z,14.69
2022-10-18T07:15:50.109Z,14.56
2022-10-18T07:17:58.403Z,14.25
2022-10-18T07:20:10.241Z,14.40
2022-10-18T07:22:18.401Z,14.38
2022-10-18T07:24:26.727Z,14.14
2022-10-18T07:26:36.479Z,14.29
2022-10-18T07:28:45.232Z,14.29
2022-10-18T07:30:53.422Z,14.10
2022-10-18T07:33:01.684Z,14.16
2022-10-18T07:35:13.321Z,14.08
2022-10-18T07:37:24.404Z,13.99
2022-10-18T07:39:34.724Z,13.97
2022-10-18T07:41:43.240Z,14.17
2022-10-18T07:43:53.990Z,14.15
2022-10-18T07:46:03.814Z,14.23
2022-10-18T07:48:12.181Z,14.14
2022-10-18T07:50:23.244Z,14.20
2022-10-18T07:52:32.745Z,14.23
2022-10-18T07:54:42.783Z,14.54
2022-10-18T07:56:54.157Z,14.50
2022-10-18T07:59:02.635Z,14.81
2022-10-18T08:01:12.241Z,15.15
2022-10-18T08:03:20.452Z,15.13
2022-10-18T08:08:05.672Z,15.65
2022-10-18T08:10:16.090Z,15.88
2022-10-18T08:12:26.372Z,16.02
2022-10-18T08:14:34.820Z,16.29
2022-10-18T08:16:43.363Z,16.56
2022-10-18T08:18:53.137Z,16.86
2022-10-18T08:21:10.415Z,17.07
2022-10-18T08:23:18.743Z,17.26
2022-10-18T08:25:28.764Z,17.56
2022-10-18T08:27:39.800Z,17.65
2022-10-18T08:29:48.368Z,17.78
2022-10-18T08:31:56.951Z,18.09
2022-10-18T08:34:05.370Z,17.96
2022-10-18T08:36:18.247Z,18.07
2022-10-18T08:38:26.520Z,18.03
2022-10-18T08:40:37.049Z,18.12
2022-10-18T08:43:03.344Z,18.09
2022-10-18T08:45:30.114Z,18.24
2022-10-18T08:47:46.514Z,18.34
2022-10-18T08:49:59.614Z,18.42
2022-10-18T08:52:19.825Z,18.47
2022-10-18T08:54:35.506Z,18.69
2022-10-18T08:56:48.419Z,18.93
2022-10-18T08:58:57.115Z,18.88
2022-10-18T09:01:15.852Z,18.84
2022-10-18T09:03:36.735Z,18.17
2022-10-18T09:05:52.175Z,17.79
2022-10-18T09:08:18.441Z,17.86
2022-10-18T09:10:40.334Z,17.86
2022-10-18T09:13:07.185Z,17.76
2022-10-18T09:15:21.255Z,17.81
2022-10-18T09:17:37.219Z,18.15
2022-10-18T09:20:02.338Z,18.31
2022-10-18T09:22:18.657Z,18.80
2022-10-18T09:24:42.166Z,19.02
2022-10-18T09:26:52.284Z,19.12
2022-10-18T09:29:11.579Z,19.38
2022-10-18T09:31:27.218Z,19.59
2022-10-18T09:33:53.908Z,20.08
2022-10-18T09:36:04.688Z,22.37
2022-10-18T09:38:16.313Z,24.32
2022-10-18T09:40:34.248Z,26.30
2022-10-18T09:42:45.800Z,27.14
2022-10-18T09:44:58.487Z,27.68
2022-10-18T09:47:16.895Z,27.99
2022-10-18T09:49:28.932Z,27.74
2022-10-18T09:51:39.982Z,26.59
2022-10-18T09:54:05.551Z,25.42
2022-10-18T09:56:21.205Z,24.16
2022-10-18T09:58:33.371Z,25.58
2022-10-18T10:00:48.494Z,26.48
2022-10-18T10:02:56.600Z,26.66
2022-10-18T10:05:05.092Z,25.44
2022-10-18T10:07:17.126Z,24.83
2022-10-18T10:09:31.002Z,24.34
2022-10-18T10:11:48.307Z,23.37
2022-10-18T10:14:00.618Z,23.56
2022-10-18T10:16:09.572Z,24.23
2022-10-18T10:18:28.553Z,25.11
2022-10-18T10:20:39.974Z,25.70
2022-10-18T10:22:51.792Z,25.09
2022-10-18T10:25:00.013Z,25.29
2022-10-18T10:27:21.212Z,25.85
2022-10-18T10:29:57.657Z,26.59
2022-10-18T10:32:08.410Z,27.23
2022-10-18T10:34:24.365Z,27.09
2022-10-18T10:36:34.293Z,26.80
2022-10-18T10:38:42.926Z,25.92
2022-10-18T10:40:53.282Z,25.37
2022-10-18T10:43:18.424Z,24.63
2022-10-18T10:45:38.642Z,23.66
2022-10-18T10:47:46.961Z,23.02
2022-10-18T10:49:55.220Z,22.95
2022-10-18T10:52:09.325Z,22.61
2022-10-18T10:54:39.092Z,22.08
2022-10-18T10:56:57.951Z,22.05
2022-10-18T10:59:19.096Z,21.75
2022-10-18T11:01:36.667Z,21.65
2022-10-18T11:03:51.024Z,21.51
2022-10-18T11:06:01.188Z,21.57
2022-10-18T11:08:10.388Z,21.56
2022-10-18T11:10:22.711Z,21.84
2022-10-18T11:12:36.304Z,21.67
2022-10-18T11:14:54.923Z,21.59
2022-10-18T11:17:12.368Z,21.50
2022-10-18T11:19:35.763Z,21.44
2022-10-18T11:21:46.547Z,21.39
2022-10-18T11:23:57.255Z,21.54
2022-10-18T11:26:48.923Z,21.64
2022-10-18T11:29:19.321Z,21.66
2022-10-18T11:31:35.984Z,21.69
2022-10-18T11:34:08.592Z,21.84
2022-10-18T11:39:00.548Z,21.54
2022-10-18T11:41:35.635Z,21.55
2022-10-18T11:44:02.335Z,21.98
2022-10-18T11:46:22.077Z,22.12
2022-10-18T11:49:03.025Z,21.73
2022-10-18T11:51:18.000Z,21.69
2022-10-18T11:53:36.363Z,21.45
2022-10-18T11:56:00.834Z,20.96
2022-10-18T11:58:24.926Z,21.07
2022-10-18T12:00:47.548Z,21.47
2022-10-18T12:03:15.315Z,21.58
2022-10-18T12:05:27.741Z,21.60
2022-10-18T12:07:39.471Z,21.61
2022-10-18T12:09:51.395Z,21.73
2022-10-18T12:12:04.905Z,21.70
2022-10-18T12:14:26.130Z,21.49
2022-10-18T12:16:50.907Z,21.59
2022-10-18T12:19:03.466Z,21.61
2022-10-18T12:21:16.139Z,21.42
2022-10-18T12:23:33.788Z,21.35
2022-10-18T12:25:46.088Z,21.43
2022-10-18T12:30:36.904Z,21.73
2022-10-18T12:33:02.162Z,21.92
2022-10-18T12:35:20.476Z,21.61
2022-10-18T12:38:12.687Z,21.78
2022-10-18T12:40:26.166Z,21.73
2022-10-18T12:42:38.096Z,21.49
2022-10-18T12:44:46.900Z,21.50
2022-10-18T12:46:57.784Z,21.59
2022-10-18T12:49:08.350Z,21.50
2022-10-18T12:51:18.786Z,21.58
2022-10-18T12:53:31.884Z,21.56
2022-10-18T12:58:33.765Z,21.58
2022-10-18T13:00:56.305Z,21.70
2022-10-18T13:03:31.893Z,22.13
2022-10-18T13:06:06.449Z,22.19
2022-10-18T13:08:42.363Z,22.05
2022-10-18T13:11:28.487Z,21.59
2022-10-18T13:13:54.650Z,21.42
2022-10-18T13:16:08.795Z,21.31
2022-10-18T13:18:28.715Z,21.20
2022-10-18T13:20:44.541Z,20.99
2022-10-18T13:23:07.402Z,21.02
2022-10-18T13:25:24.706Z,20.85
2022-10-18T13:27:41.742Z,20.59
2022-10-18T13:30:12.044Z,20.55
2022-10-18T13:32:28.242Z,20.57
2022-10-18T13:34:39.334Z,20.70
2022-10-18T13:36:47.824Z,20.66
2022-10-18T13:39:05.584Z,20.44
2022-10-18T13:41:19.670Z,20.25
2022-10-18T13:43:59.206Z,20.40
2022-10-18T13:46:07.936Z,20.58
2022-10-18T13:48:53.001Z,20.55
2022-10-18T13:51:10.241Z,20.62
2022-10-18T13:53:41.727Z,20.65
2022-10-18T13:56:10.029Z,20.50
2022-10-18T13:58:31.738Z,20.61
2022-10-18T14:00:55.124Z,20.70
2022-10-18T14:03:58.916Z,20.54
2022-10-18T14:06:05.530Z,20.42
2022-10-18T14:08:19.133Z,20.43
2022-10-18T14:10:57.226Z,20.54
2022-10-18T14:13:10.395Z,20.58
2022-10-18T14:15:26.668Z,20.54
2022-10-18T14:17:43.130Z,20.52
2022-10-18T14:19:57.367Z,20.43
2022-10-18T14:22:13.828Z,20.20
2022-10-18T14:24:26.474Z,20.27
2022-10-18T14:26:34.717Z,20.06
2022-10-18T14:29:00.225Z,19.93
2022-10-18T14:31:17.273Z,19.89
2022-10-18T14:33:31.541Z,19.74
2022-10-18T14:35:41.495Z,19.73
2022-10-18T14:37:52.001Z,19.66
2022-10-18T14:40:00.679Z,19.68
2022-10-18T14:42:08.938Z,19.64
2022-10-18T14:44:23.492Z,19.61
2022-10-18T14:46:34.892Z,19.47
2022-10-18T14:48:46.661Z,19.54
2022-10-18T14:51:02.040Z,19.47
2022-10-18T14:53:10.756Z,19.36
2022-10-18T14:55:29.168Z,19.39
2022-10-18T14:57:40.448Z,19.32
2022-10-18T14:59:54.044Z,19.29
2022-10-18T15:02:08.381Z,19.41
2022-10-18T15:04:16.895Z,19.40
2022-10-18T15:06:26.829Z,19.42
2022-10-18T15:08:39.792Z,19.38
2022-10-18T15:10:49.102Z,19.28
2022-10-18T15:13:16.550Z,19.25
2022-10-18T15:15:30.216Z,19.34
2022-10-18T15:17:43.174Z,19.28
2022-10-18T15:20:03.335Z,19.18
2022-10-18T15:22:30.762Z,19.06
2022-10-18T15:24:42.707Z,19.09
2022-10-18T15:26:53.028Z,19.08
2022-10-18T15:29:04.472Z,19.13
2022-10-18T15:31:34.482Z,19.08
2022-10-18T15:33:45.232Z,19.04
2022-10-18T15:35:54.829Z,19.15
2022-10-18T15:38:05.228Z,18.95
2022-10-18T15:40:39.533Z,18.85
2022-10-18T15:42:48.946Z,18.75
2022-10-18T15:44:57.531Z,18.69
2022-10-18T15:47:21.252Z,18.63
2022-10-18T15:49:59.541Z,18.67
2022-10-18T15:52:39.224Z,18.52
2022-10-18T15:57:16.280Z,18.40
2022-10-18T15:59:27.781Z,18.35
2022-10-18T16:01:40.875Z,18.25
2022-10-18T16:03:50.606Z,18.20
2022-10-18T16:06:08.380Z,18.23
2022-10-18T16:08:24.879Z,18.12
2022-10-18T16:10:33.226Z,18.04
2022-10-18T16:12:41.654Z,18.05
2022-10-18T16:14:49.786Z,18.03
2022-10-18T16:17:03.187Z,18.06
2022-10-18T16:19:13.448Z,17.93
2022-10-18T16:21:26.688Z,17.93
2022-10-18T16:23:34.861Z,17.83
2022-10-18T16:25:43.349Z,17.84
2022-10-18T16:27:51.621Z,17.87
2022-10-18T16:30:00.375Z,17.79
2022-10-18T16:32:08.887Z,17.95
2022-10-18T16:34:17.845Z,17.82
2022-10-18T16:36:30.926Z,17.78
2022-10-18T16:38:40.064Z,17.68
2022-10-18T16:40:49.095Z,17.66
2022-10-18T16:42:57.336Z,17.70
2022-10-18T16:45:05.338Z,17.60
2022-10-18T16:47:14.642Z,17.53
2022-10-18T16:49:24.986Z,17.57
2022-10-18T16:51:36.458Z,17.62
2022-10-18T16:53:45.272Z,17.48
2022-10-18T16:55:57.560Z,17.47
2022-10-18T16:58:06.536Z,17.46
2022-10-18T17:00:21.373Z,17.44
2022-10-18T17:02:29.781Z,17.55
2022-10-18T17:04:38.125Z,17.55
2022-10-18T17:06:49.527Z,17.45
2022-10-18T17:08:58.390Z,17.45
2022-10-18T17:11:06.558Z,17.36
2022-10-18T17:13:14.871Z,17.38
2022-10-18T17:15:23.717Z,17.42
2022-10-18T17:17:32.292Z,17.35
2022-10-18T17:19:40.956Z,17.28
2022-10-18T17:21:52.429Z,17.27
2022-10-18T17:24:01.556Z,17.26
2022-10-18T17:26:27.828Z,17.18
2022-10-18T17:28:38.645Z,17.11
2022-10-18T17:30:47.774Z,17.21
2022-10-18T17:32:55.863Z,17.10
2022-10-18T17:35:04.126Z,17.02
2022-10-18T17:37:15.450Z,17.04
2022-10-18T17:39:26.880Z,17.00
2022-10-18T17:41:35.252Z,16.92
2022-10-18T17:43:45.377Z,16.85
2022-10-18T17:45:57.507Z,16.89
2022-10-18T17:48:05.516Z,16.80
2022-10-18T17:50:15.452Z,16.79
2022-10-18T17:52:26.115Z,16.74
2022-10-18T17:54:34.449Z,16.60
2022-10-18T17:56:43.489Z,16.56
2022-10-18T17:58:54.833Z,16.74
2022-10-18T18:01:12.724Z,16.67
2022-10-18T18:03:20.854Z,16.60
2022-10-18T18:05:32.718Z,16.52
2022-10-18T18:07:44.320Z,16.45
2022-10-18T18:09:52.389Z,16.39
2022-10-18T18:12:00.761Z,16.33
2022-10-18T18:14:11.557Z,16.34
2022-10-18T18:16:22.178Z,16.24
2022-10-18T18:18:30.286Z,16.25
2022-10-18T18:20:38.427Z,16.24
2022-10-18T18:22:49.526Z,16.23
2022-10-18T18:24:57.644Z,16.18
2022-10-18T18:27:09.267Z,16.21
2022-10-18T18:29:17.297Z,16.19
2022-10-18T18:31:30.739Z,16.14
2022-10-18T18:33:52.827Z,16.31
2022-10-18T18:36:04.849Z,16.45
2022-10-18T18:38:17.555Z,16.44
2022-10-18T18:40:27.607Z,16.38
2022-10-18T18:42:36.883Z,16.35
2022-10-18T18:44:46.159Z,16.34
2022-10-18T18:46:54.336Z,16.31
2022-10-18T18:49:03.072Z,16.31
2022-10-18T18:51:14.232Z,16.36
2022-10-18T18:53:28.629Z,16.28
2022-10-18T18:55:40.056Z,16.20
2022-10-18T18:57:48.578Z,16.13
2022-10-18T18:59:56.694Z,16.10
2022-10-18T19:02:05.247Z,16.03
2022-10-18T19:04:20.009Z,15.96
2022-10-18T19:06:34.383Z,15.93
2022-10-18T19:09:03.002Z,15.71
2022-10-18T19:11:12.586Z,15.62
2022-10-18T19:13:20.862Z,15.55
2022-10-18T19:15:30.093Z,15.45
2022-10-18T19:17:40.613Z,15.37
2022-10-18T19:19:50.886Z,15.28
2022-10-18T19:22:00.543Z,15.19
2022-10-18T19:24:11.453Z,15.08
2022-10-18T19:26:29.197Z,15.03
2022-10-18T19:28:44.000Z,14.96
2022-10-18T19:30:56.176Z,14.95
2022-10-18T19:33:05.056Z,14.91
2022-10-18T19:35:13.495Z,14.80
2022-10-18T19:37:22.187Z,14.76
2022-10-18T19:39:34.988Z,14.70
2022-10-18T19:41:43.206Z,14.65
2022-10-18T19:43:51.678Z,14.57
2022-10-18T19:45:59.814Z,14.57
2022-10-18T19:48:13.516Z,14.53
2022-10-18T19:50:21.984Z,14.53
2022-10-18T19:52:30.600Z,14.51
2022-10-18T19:54:42.089Z,14.52
2022-10-18T19:56:53.711Z,14.46
2022-10-18T19:59:02.959Z,14.47
2022-10-18T20:01:11.495Z,14.47
2022-10-18T20:03:22.087Z,14.47
2022-10-18T20:05:30.138Z,14.40
2022-10-18T20:07:38.366Z,14.33
2022-10-18T20:09:50.385Z,14.36
2022-10-18T20:11:58.738Z,14.36
2022-10-18T20:14:09.805Z,14.36
2022-10-18T20:16:24.204Z,14.35
2022-10-18T20:18:35.704Z,14.28
2022-10-18T20:20:47.266Z,14.23
2022-10-18T20:22:56.925Z,14.25
2022-10-18T20:25:10.042Z,14.24
2022-10-18T20:27:18.683Z,14.20
2022-10-18T20:29:27.249Z,14.15
2022-10-18T20:31:39.326Z,14.13
2022-10-18T20:33:48.563Z,14.23
2022-10-18T20:35:57.303Z,14.21
2022-10-18T20:38:05.368Z,14.22
2022-10-18T20:40:17.265Z,14.21
2022-10-18T20:42:25.650Z,14.12
2022-10-18T20:44:34.477Z,14.09
2022-10-18T20:46:43.768Z,14.09
2022-10-18T20:48:53.140Z,14.05
2022-10-18T20:51:05.770Z,13.98
2022-10-18T20:53:14.384Z,13.86
2022-10-18T20:55:25.129Z,13.79
2022-10-18T20:57:36.439Z,13.75
2022-10-18T20:59:45.188Z,13.72
2022-10-18T21:01:53.764Z,13.66
2022-10-18T21:04:05.194Z,13.68
2022-10-18T21:06:14.731Z,13.68
2022-10-18T21:08:22.987Z,13.63
2022-10-18T21:10:33.656Z,13.63
2022-10-18T21:12:42.000Z,13.69
2022-10-18T21:14:50.521Z,13.99
2022-10-18T21:16:58.777Z,14.07
2022-10-18T21:19:07.777Z,13.94
2022-10-18T21:21:18.354Z,13.86
2022-10-18T21:23:26.641Z,13.75
2022-10-18T21:25:37.817Z,13.56
2022-10-18T21:27:45.904Z,13.55
2022-10-18T21:29:54.263Z,13.56
2022-10-18T21:32:02.979Z,13.56
2022-10-18T21:34:15.431Z,13.75
2022-10-18T21:36:23.930Z,13.76
2022-10-18T21:38:32.532Z,13.81
2022-10-18T21:40:44.770Z,13.85
2022-10-18T21:42:53.005Z,13.78
2022-10-18T21:45:01.073Z,13.72
2022-10-18T21:47:09.230Z,13.86
2022-10-18T21:49:17.912Z,13.87
2022-10-18T21:51:28.351Z,13.87
2022-10-18T21:53:37.752Z,13.78
2022-10-18T21:55:48.431Z,13.62
2022-10-18T21:57:56.807Z,13.54
2022-10-18T22:00:08.407Z,13.46
2022-10-18T22:02:16.439Z,13.48
2022-10-18T22:04:26.374Z,13.55
2022-10-18T22:06:37.046Z,13.71
2022-10-18T22:08:46.192Z,13.63
2022-10-18T22:10:57.274Z,13.54
2022-10-18T22:13:05.677Z,13.40
2022-10-18T22:15:14.059Z,13.41
2022-10-18T22:17:23.782Z,13.31
2022-10-18T22:19:32.328Z,13.22
2022-10-18T22:21:40.311Z,13.07
2022-10-18T22:23:50.332Z,13.04
2022-10-18T22:26:08.023Z,13.06
2022-10-18T22:28:16.607Z,13.02
2022-10-18T22:30:24.807Z,12.99
2022-10-18T22:32:32.907Z,12.97
2022-10-18T22:34:40.915Z,12.96
2022-10-18T22:36:50.070Z,12.95
2022-10-18T22:38:58.627Z,13.09
2022-10-18T22:41:11.159Z,13.18
2022-10-18T22:43:19.226Z,13.13
2022-10-18T22:45:27.420Z,13.03
2022-10-18T22:47:36.216Z,12.93
2022-10-18T22:49:44.800Z,13.00
2022-10-18T22:51:53.213Z,13.02
2022-10-18T22:54:01.419Z,12.93
2022-10-18T22:56:16.924Z,12.85
2022-10-18T22:58:26.075Z,12.88
2022-10-18T23:00:34.799Z,12.85
2022-10-18T23:02:43.335Z,12.85
2022-10-18T23:04:51.361Z,12.85
2022-10-18T23:06:59.624Z,12.84
2022-10-18T23:09:10.585Z,12.86
2022-10-18T23:11:21.980Z,12.84
2022-10-18T23:13:30.953Z,12.78
2022-10-18T23:15:40.029Z,12.82
2022-10-18T23:17:50.162Z,13.04
2022-10-18T23:19:58.528Z,13.06
2022-10-18T23:22:07.055Z,13.06
2022-10-18T23:24:15.661Z,13.16
2022-10-18T23:26:29.037Z,13.10
2022-10-18T23:29:06.353Z,13.17
2022-10-18T23:31:18.175Z,13.08
2022-10-18T23:33:26.571Z,13.10
2022-10-18T23:35:34.674Z,12.89
2022-10-18T23:37:42.934Z,12.75
2022-10-18T23:39:51.296Z,12.76
2022-10-18T23:42:04.252Z,12.71
2022-10-18T23:44:12.437Z,12.69
2022-10-18T23:46:22.500Z,12.54
2022-10-18T23:48:30.842Z,12.45
2022-10-18T23:50:39.081Z,12.50
2022-10-18T23:52:47.523Z,12.49
2022-10-18T23:54:55.624Z,12.53
2022-10-18T23:57:06.983Z,12.53
2022-10-18T23:59:15.572Z,12.65
